Time;durP1;ratioP1;P1;durP2;ratioP2;P2;SDS_P1;SDS_P2;PMS_P1;PMS_P2;Temp;Humidity;BMP_temperature;BMP_pressure;BME280_temperature;BME280_humidity;BME280_pressure;Samples;Min_cycle;Max_cycle;Signal;HPM_P1;HPM_P2
2022/12/29 00:01:36;;;;;;;9.77;3.40;;;22.50;71.20;;;;;;5074310;28;20084;-64
2022/12/29 00:04:03;;;;;;;10.38;3.70;;;22.50;71.80;;;;;;5077293;28;20165;-66
2022/12/29 00:06:29;;;;;;;7.18;3.25;;;22.40;72.40;;;;;;5077718;28;20091;-68
2022/12/29 00:08:56;;;;;;;11.85;3.65;;;22.30;72.90;;;;;;5081334;28;20534;-68
2022/12/29 00:11:25;;;;;;;12.82;4.43;;;22.30;74.40;;;;;;5077095;28;20153;-67
2022/12/29 00:16:38;;;;;;;15.45;4.07;;;22.10;75.90;;;;;;5087524;28;20125;-65
2022/12/29 00:19:05;;;;;;;6.18;3.30;;;22.00;76.30;;;;;;5084915;28;20091;-68
2022/12/29 00:35:30;;;;;;;9.25;2.00;;;21.60;79.50;;;;;;5083344;28;20098;-66
2022/12/29 00:46:16;;;;;;;18.10;2.80;;;21.00;86.10;;;;;;5085472;28;20211;-67
2022/12/29 00:51:27;;;;;;;7.07;1.85;;;20.80;86.60;;;;;;5079506;28;20121;-67
2022/12/29 00:53:53;;;;;;;9.82;2.10;;;20.70;87.20;;;;;;5085835;28;20521;-66
2022/12/29 00:56:20;;;;;;;8.95;2.72;;;20.60;87.30;;;;;;5080836;28;20098;-63
2022/12/29 00:58:46;;;;;;;6.35;2.72;;;20.40;87.60;;;;;;5080965;28;20208;-66
2022/12/29 01:01:13;;;;;;;10.82;3.10;;;20.40;88.00;;;;;;5081611;28;20093;-66
2022/12/29 01:03:39;;;;;;;20.27;9.35;;;20.80;87.20;;;;;;5083192;28;20087;-63
2022/12/29 01:06:08;;;;;;;23.85;9.38;;;21.50;85.50;;;;;;5076692;28;20160;-65
2022/12/29 01:08:35;;;;;;;20.80;8.98;;;22.10;83.10;;;;;;5075696;28;20436;-63
2022/12/29 01:11:07;;;;;;;25.67;9.30;;;22.30;80.50;;;;;;5080957;28;20077;-63
2022/12/29 01:13:34;;;;;;;25.58;9.73;;;22.50;80.00;;;;;;5076780;28;20085;-63
2022/12/29 01:16:00;;;;;;;16.75;2.80;;;22.70;79.30;;;;;;5072981;28;20110;-62
2022/12/29 01:18:27;;;;;;;9.05;2.35;;;22.60;78.30;;;;;;5077919;28;20148;-64
2022/12/29 01:21:06;;;;;;;7.75;2.90;;;22.60;77.70;;;;;;5076217;28;20523;-63
2022/12/29 01:23:32;;;;;;;9.23;2.50;;;22.50;77.50;;;;;;5076340;28;20520;-65
2022/12/29 01:26:15;;;;;;;11.25;2.33;;;22.50;77.60;;;;;;5089933;28;20077;-62
2022/12/29 01:28:42;;;;;;;11.85;1.95;;;22.30;83.80;;;;;;5085174;28;20107;-64
2022/12/29 01:31:10;;;;;;;11.10;2.22;;;22.10;77.60;;;;;;5074874;28;20068;-65
2022/12/29 01:33:36;;;;;;;12.63;2.58;;;22.40;77.70;;;;;;5075688;28;20440;-64
2022/12/29 01:36:09;;;;;;;12.38;3.47;;;22.30;77.20;;;;;;5080055;28;20091;-66
2022/12/29 01:38:37;;;;;;;13.88;2.55;;;22.20;77.00;;;;;;5086075;28;20075;-67
2022/12/29 01:41:04;;;;;;;12.88;3.17;;;21.50;77.20;;;;;;5081961;28;20097;-67
2022/12/29 01:43:52;;;;;;;7.97;2.75;;;21.00;99.90;;;;;;5081958;28;20488;-66
2022/12/29 01:46:41;;;;;;;12.63;2.40;;;20.40;82.00;;;;;;5081789;28;20068;-66
2022/12/29 01:49:24;;;;;;;12.05;2.70;;;20.20;83.60;;;;;;5082792;28;20153;-66
2022/12/29 01:52:00;;;;;;;11.75;2.60;;;20.00;99.40;;;;;;5084925;28;20097;-65
2022/12/29 01:54:30;;;;;;;;;;;19.80;85.40;;;;;;5083184;28;20062;-65
2022/12/29 01:57:01;;;;;;;18.33;2.85;;;19.70;86.20;;;;;;5074651;28;20442;-64
2022/12/29 01:59:34;;;;;;;13.75;3.30;;;19.30;99.90;;;;;;5082776;28;20541;-64
2022/12/29 02:02:01;;;;;;;12.02;2.85;;;19.30;87.60;;;;;;5079573;28;20795;-65
2022/12/29 02:04:32;;;;;;;13.18;2.60;;;19.20;88.20;;;;;;5078611;28;20081;-66
2022/12/29 02:07:11;;;;;;;10.82;2.45;;;19.20;89.00;;;;;;5085168;28;20168;-68
2022/12/29 02:09:38;;;;;;;13.93;3.30;;;19.10;89.70;;;;;;5077369;28;20080;-64
2022/12/29 02:12:04;;;;;;;18.83;3.88;;;19.00;90.20;;;;;;5079658;28;20499;-65
2022/12/29 02:14:31;;;;;;;20.52;3.42;;;18.90;90.50;;;;;;5078317;28;20148;-66
2022/12/29 02:17:12;;;;;;;18.13;4.40;;;18.90;90.70;;;;;;5080124;28;20073;-67
2022/12/29 02:20:09;;;;;;;15.57;4.55;;;18.80;90.80;;;;;;5081031;28;20464;-66
2022/12/29 02:23:05;;;;;;;18.42;5.30;;;18.70;91.20;;;;;;5082234;28;20081;-67
2022/12/29 02:25:52;;;;;;;13.70;5.47;;;18.60;91.40;;;;;;5076846;28;20069;-68
2022/12/29 02:28:43;;;;;;;13.23;5.90;;;18.50;91.80;;;;;;5078230;28;20088;-66
2022/12/29 02:31:38;;;;;;;12.30;6.40;;;18.40;92.10;;;;;;5077434;28;20085;-67
2022/12/29 02:34:25;;;;;;;16.98;6.50;;;18.40;92.40;;;;;;5077569;28;20069;-67
2022/12/29 02:37:18;;;;;;;16.52;6.10;;;18.30;92.60;;;;;;5075822;28;20075;-66
2022/12/29 02:39:53;;;;;;;19.38;5.90;;;18.20;92.80;;;;;;5073937;28;20461;-67
2022/12/29 02:42:55;;;;;;;14.63;4.95;;;18.20;92.90;;;;;;5071737;28;20076;-65
2022/12/29 02:45:33;;;;;;;16.40;4.40;;;18.10;93.20;;;;;;5079674;28;20068;-66
2022/12/29 02:48:11;;;;;;;9.68;4.00;;;18.10;93.40;;;;;;5078658;28;20107;-68
2022/12/29 02:50:42;;;;;;;13.38;4.28;;;18.00;93.60;;;;;;5081742;28;20467;-70
2022/12/29 02:53:13;;;;;;;15.85;4.30;;;18.00;93.80;;;;;;5080674;28;20573;-70
2022/12/29 02:55:47;;;;;;;11.88;4.55;;;18.00;93.80;;;;;;5073713;28;20083;-67
2022/12/29 02:58:22;;;;;;;13.20;5.20;;;18.00;93.90;;;;;;5077729;28;20105;-67
2022/12/29 03:01:24;;;;;;;15.68;4.38;;;18.00;94.00;;;;;;5079096;28;20117;-67
2022/12/29 03:03:59;;;;;;;10.32;4.07;;;18.00;94.20;;;;;;5077652;28;20072;-67
2022/12/29 03:06:51;;;;;;;9.02;4.20;;;17.90;99.00;;;;;;5079942;28;20088;-67
2022/12/29 03:09:34;;;;;;;11.32;3.78;;;17.90;94.60;;;;;;5079352;28;20076;-68
2022/12/29 03:12:20;;;;;;;9.90;4.53;;;17.90;94.70;;;;;;5081530;28;20096;-66
2022/12/29 03:17:58;;;;;;;13.45;5.20;;;17.90;95.20;;;;;;5078557;28;20088;-67
2022/12/29 03:20:31;;;;;;;16.10;4.97;;;17.80;95.40;;;;;;5078984;28;20116;-66
2022/12/29 03:23:01;;;;;;;16.38;5.40;;;17.80;95.70;;;;;;5077312;28;20077;-66
2022/12/29 03:25:35;;;;;;;11.30;5.43;;;17.80;95.90;;;;;;5082350;28;20072;-68
2022/12/29 03:28:07;;;;;;;13.10;5.07;;;17.80;96.00;;;;;;5081380;28;20613;-66
2022/12/29 03:30:35;;;;;;;11.30;5.82;;;17.80;96.00;;;;;;5082257;28;20624;-66
2022/12/29 03:33:07;;;;;;;15.65;6.22;;;17.80;96.10;;;;;;5078759;28;20078;-64
2022/12/29 03:35:37;;;;;;;15.18;5.85;;;17.80;96.10;;;;;;5076188;28;20064;-65
2022/12/29 03:38:11;;;;;;;16.02;5.55;;;17.80;96.10;;;;;;5073307;28;20609;-66
2022/12/29 03:40:40;;;;;;;17.60;5.13;;;17.80;96.10;;;;;;5082258;28;20076;-65
2022/12/29 03:43:06;;;;;;;11.02;5.32;;;17.80;96.20;;;;;;5080169;28;20064;-67
2022/12/29 03:45:33;;;;;;;12.98;4.95;;;17.70;96.20;;;;;;5081809;28;20064;-66
2022/12/29 03:47:59;;;;;;;11.40;3.78;;;18.20;99.90;;;;;;5079955;28;20096;-67
2022/12/29 03:50:26;;;;;;;13.73;4.10;;;18.00;99.90;;;;;;5076977;28;20079;-66
2022/12/29 03:52:52;;;;;;;12.38;3.45;;;;;;;;;;5077132;28;20064;-66
2022/12/29 03:55:19;;;;;;;16.33;4.45;;;17.70;99.90;;;;;;5082459;28;20481;-66
2022/12/29 03:57:45;;;;;;;8.48;3.80;;;17.30;99.90;;;;;;5077008;28;20115;-67
2022/12/29 04:00:13;;;;;;;17.38;5.10;;;17.60;96.70;;;;;;5080471;28;20105;-66
2022/12/29 04:02:39;;;;;;;11.63;4.55;;;17.50;99.90;;;;;;5078452;28;20095;-66
2022/12/29 04:05:06;;;;;;;9.88;3.53;;;18.10;99.90;;;;;;5078208;28;20150;-65
2022/12/29 04:07:33;;;;;;;9.13;4.68;;;;;;;;;;5079217;28;20140;-67
2022/12/29 04:09:59;;;;;;;14.70;4.30;;;17.40;99.90;;;;;;5076177;28;20192;-67
2022/12/29 04:12:25;;;;;;;17.58;4.38;;;17.50;99.90;;;;;;5078021;28;20429;-68
2022/12/29 04:14:52;;;;;;;14.43;3.40;;;17.90;99.90;;;;;;5076648;28;20459;-68
2022/12/29 04:17:19;;;;;;;11.82;3.70;;;17.50;99.90;;;;;;5079841;28;20155;-67
2022/12/29 04:19:45;;;;;;;11.35;4.05;;;17.60;96.50;;;;;;5077416;28;20444;-65
2022/12/29 04:22:12;;;;;;;8.45;3.58;;;17.20;99.90;;;;;;5082511;28;20087;-66
2022/12/29 04:24:38;;;;;;;11.48;4.22;;;17.90;99.90;;;;;;5077231;28;20109;-66
2022/12/29 04:27:05;;;;;;;8.55;4.20;;;17.10;99.90;;;;;;5080783;28;20078;-66
2022/12/29 04:29:31;;;;;;;15.82;4.85;;;17.50;99.90;;;;;;5073858;28;20096;-65
2022/12/29 04:31:58;;;;;;;14.23;4.22;;;18.10;99.90;;;;;;5082854;28;20075;-67
2022/12/29 04:34:24;;;;;;;18.40;4.00;;;17.30;99.90;;;;;;5077324;28;20120;-64
2022/12/29 04:36:51;;;;;;;12.90;3.58;;;17.60;99.90;;;;;;5079860;28;20127;-66
2022/12/29 04:39:17;;;;;;;14.07;3.88;;;17.70;99.90;;;;;;5080222;28;20097;-67
2022/12/29 04:41:44;;;;;;;16.65;3.33;;;17.80;99.90;;;;;;5079676;28;20095;-65
2022/12/29 04:44:10;;;;;;;14.00;3.53;;;17.00;99.90;;;;;;5076221;28;20077;-67
2022/12/29 04:46:36;;;;;;;11.82;3.58;;;17.80;99.90;;;;;;5078431;28;20076;-68
2022/12/29 04:49:08;;;;;;;9.20;3.20;;;17.50;96.00;;;;;;5076755;28;20088;-67
2022/12/29 04:51:35;;;;;;;12.02;3.28;;;17.50;95.90;;;;;;5077030;28;20096;-65
2022/12/29 04:54:01;;;;;;;9.63;3.78;;;;;;;;;;5082209;28;20526;-64
2022/12/29 04:56:28;;;;;;;12.15;4.07;;;17.50;95.50;;;;;;5075729;28;20096;-65
2022/12/29 04:58:54;;;;;;;11.48;4.53;;;17.50;95.70;;;;;;5076831;28;20120;-65
2022/12/29 05:01:21;;;;;;;17.90;4.32;;;17.50;95.70;;;;;;5083689;28;20096;-64
2022/12/29 05:03:49;;;;;;;17.05;4.70;;;17.50;95.70;;;;;;5078906;28;20100;-67
2022/12/29 05:06:16;;;;;;;12.52;3.72;;;17.40;95.70;;;;;;5080099;28;20092;-65
2022/12/29 05:08:42;;;;;;;13.32;4.45;;;17.40;95.70;;;;;;5076798;28;20490;-66
2022/12/29 05:11:08;;;;;;;13.57;4.53;;;17.30;95.70;;;;;;5079895;28;20069;-66
2022/12/29 05:13:35;;;;;;;15.82;5.03;;;17.30;95.70;;;;;;5078881;28;20076;-67
2022/12/29 05:16:01;;;;;;;16.52;5.45;;;17.30;95.90;;;;;;5084442;28;20072;-65
2022/12/29 05:18:28;;;;;;;14.00;6.70;;;17.20;96.10;;;;;;5080983;28;20072;-65
2022/12/29 05:20:54;;;;;;;23.45;6.60;;;17.20;96.30;;;;;;5076862;28;20438;-66
2022/12/29 05:23:21;;;;;;;17.45;7.07;;;17.10;96.30;;;;;;5075331;28;20628;-64
2022/12/29 05:25:47;;;;;;;16.27;6.35;;;17.10;96.40;;;;;;5079564;28;20143;-66
2022/12/29 05:28:14;;;;;;;18.85;6.85;;;17.10;96.50;;;;;;5081087;28;20072;-66
2022/12/29 05:30:40;;;;;;;21.40;7.68;;;17.00;96.60;;;;;;5079039;28;20168;-67
2022/12/29 05:33:07;;;;;;;24.50;8.18;;;17.00;96.70;;;;;;5081179;28;20440;-65
2022/12/29 05:35:34;;;;;;;30.08;7.28;;;17.00;96.80;;;;;;5080291;28;20085;-66
2022/12/29 05:38:00;;;;;;;21.80;6.38;;;17.00;96.90;;;;;;5083334;28;20422;-67
2022/12/29 05:40:27;;;;;;;27.55;8.35;;;16.90;97.00;;;;;;5089480;28;20122;-66
2022/12/29 05:42:53;;;;;;;23.05;8.07;;;16.90;97.00;;;;;;5075626;28;20092;-66
2022/12/29 05:45:19;;;;;;;23.67;7.55;;;16.90;97.00;;;;;;5079492;28;20100;-67
2022/12/29 05:47:46;;;;;;;24.08;7.20;;;16.90;97.20;;;;;;5082101;28;20089;-67
2022/12/29 05:50:12;;;;;;;16.00;4.75;;;16.80;97.10;;;;;;5077611;28;20118;-65
2022/12/29 05:52:39;;;;;;;22.65;7.25;;;16.80;97.10;;;;;;5084618;28;20100;-63
2022/12/29 05:55:06;;;;;;;23.15;6.30;;;17.10;99.90;;;;;;5077318;28;20122;-64
2022/12/29 05:57:32;;;;;;;22.52;6.78;;;16.70;97.10;;;;;;5080596;28;20077;-65
2022/12/29 05:59:58;;;;;;;25.58;7.35;;;16.70;97.10;;;;;;5080295;28;20255;-66
2022/12/29 06:02:25;;;;;;;17.38;7.00;;;16.50;99.90;;;;;;5078023;28;20167;-63
2022/12/29 06:04:51;;;;;;;18.20;6.47;;;16.70;97.00;;;;;;5078378;28;20125;-65
2022/12/29 06:07:18;;;;;;;15.43;6.68;;;16.70;97.00;;;;;;5079873;28;20476;-67
2022/12/29 06:09:44;;;;;;;20.10;6.93;;;16.70;97.10;;;;;;5076054;28;20069;-67
2022/12/29 06:12:10;;;;;;;17.98;6.32;;;16.70;97.20;;;;;;5082293;28;20141;-67
2022/12/29 06:14:37;;;;;;;19.75;6.75;;;16.60;99.90;;;;;;5077875;28;20077;-65
2022/12/29 06:17:03;;;;;;;17.63;5.78;;;16.80;97.90;;;;;;5081757;28;20095;-66
2022/12/29 06:19:30;;;;;;;34.97;6.05;;;16.80;99.00;;;;;;5084292;28;20072;-65
2022/12/29 06:21:56;;;;;;;16.25;4.25;;;16.80;99.90;;;;;;5079438;28;20092;-66
2022/12/29 06:24:22;;;;;;;14.63;4.22;;;16.80;99.90;;;;;;5078901;28;20703;-65
2022/12/29 06:26:49;;;;;;;15.25;3.38;;;16.70;99.90;;;;;;5080797;28;20100;-65
2022/12/29 06:29:16;;;;;;;19.42;3.70;;;16.70;99.90;;;;;;5077397;28;20081;-66
2022/12/29 06:31:45;;;;;;;16.23;3.70;;;16.70;99.90;;;;;;5083301;28;20068;-64
2022/12/29 06:34:12;;;;;;;20.70;4.40;;;16.60;99.90;;;;;;5079598;28;20080;-65
2022/12/29 06:36:39;;;;;;;18.10;3.70;;;16.60;99.90;;;;;;5076702;28;20069;-65
2022/12/29 06:39:05;;;;;;;26.98;4.88;;;16.50;99.90;;;;;;5077009;28;20077;-65
2022/12/29 06:41:32;;;;;;;26.70;5.32;;;16.40;99.90;;;;;;5077711;28;20481;-66
2022/12/29 06:43:58;;;;;;;26.38;5.75;;;16.40;99.90;;;;;;5078959;28;20088;-66
2022/12/29 06:46:25;;;;;;;29.77;7.35;;;16.40;99.90;;;;;;5080675;28;20084;-65
2022/12/29 06:48:51;;;;;;;28.33;7.03;;;16.40;99.90;;;;;;5081247;28;20104;-67
2022/12/29 06:51:17;;;;;;;23.42;7.13;;;16.30;99.90;;;;;;5076233;28;20093;-65
2022/12/29 06:53:44;;;;;;;32.50;9.65;;;15.90;99.90;;;;;;5076955;28;20076;-65
2022/12/29 06:56:10;;;;;;;25.35;8.77;;;16.20;99.90;;;;;;5075069;28;20092;-66
2022/12/29 06:58:37;;;;;;;19.15;9.27;;;16.20;99.90;;;;;;5077210;28;20162;-64
2022/12/29 07:01:03;;;;;;;29.33;11.93;;;16.10;99.90;;;;;;5081632;28;20093;-65
2022/12/29 07:03:30;;;;;;;30.17;12.90;;;16.00;99.90;;;;;;5077324;28;20108;-66
2022/12/29 07:05:57;;;;;;;36.05;13.85;;;16.10;99.90;;;;;;5076874;28;20073;-64
2022/12/29 07:08:24;;;;;;;36.85;16.08;;;15.90;99.90;;;;;;5078436;28;20068;-63
2022/12/29 07:10:51;;;;;;;44.08;24.65;;;16.00;99.90;;;;;;5083147;28;20077;-65
2022/12/29 07:13:17;;;;;;;49.08;28.38;;;16.00;99.90;;;;;;5077926;28;20087;-66
2022/12/29 07:15:44;;;;;;;56.08;30.25;;;15.90;99.90;;;;;;5076072;28;20072;-64
2022/12/29 07:18:10;;;;;;;52.25;28.38;;;16.00;99.90;;;;;;5081866;28;20167;-65
2022/12/29 07:20:36;;;;;;;52.95;27.20;;;15.90;99.90;;;;;;5074988;28;20148;-65
2022/12/29 07:23:03;;;;;;;33.78;17.48;;;15.90;99.90;;;;;;5075073;28;20248;-65
2022/12/29 07:25:30;;;;;;;31.98;13.55;;;15.90;99.90;;;;;;5078315;28;20122;-64
2022/12/29 07:27:56;;;;;;;34.15;11.27;;;15.80;99.90;;;;;;5080823;28;20160;-64
2022/12/29 07:30:22;;;;;;;28.48;9.45;;;15.70;99.90;;;;;;5080942;28;20539;-68
2022/12/29 07:32:49;;;;;;;27.85;9.30;;;15.70;99.90;;;;;;5074041;28;20127;-64
2022/12/29 07:35:15;;;;;;;24.02;7.78;;;15.70;99.90;;;;;;5079367;28;20149;-65
2022/12/29 07:37:42;;;;;;;24.48;8.48;;;15.70;99.90;;;;;;5080553;28;20100;-65
2022/12/29 07:40:10;;;;;;;31.30;10.27;;;15.60;99.90;;;;;;5083611;28;20068;-66
2022/12/29 07:42:36;;;;;;;31.35;10.13;;;15.60;99.90;;;;;;5075497;28;20087;-64
2022/12/29 07:45:03;;;;;;;32.75;11.43;;;15.60;99.90;;;;;;5079464;28;20148;-67
2022/12/29 07:47:29;;;;;;;34.55;10.07;;;15.60;99.90;;;;;;5079349;28;20217;-64
2022/12/29 07:49:56;;;;;;;30.75;8.70;;;15.60;99.90;;;;;;5080883;28;20076;-64
2022/12/29 07:52:22;;;;;;;21.90;7.88;;;15.60;99.90;;;;;;5078939;28;20212;-66
2022/12/29 07:54:48;;;;;;;23.73;7.07;;;15.60;99.90;;;;;;5079827;28;20156;-66
2022/12/29 07:57:15;;;;;;;27.88;7.78;;;15.50;99.90;;;;;;5076379;28;20092;-64
2022/12/29 07:59:41;;;;;;;23.02;7.40;;;15.50;99.90;;;;;;5078838;28;20140;-64
2022/12/29 08:02:11;;;;;;;31.55;8.40;;;15.50;99.90;;;;;;5079516;28;20149;-66
2022/12/29 08:04:37;;;;;;;29.92;9.07;;;15.50;99.90;;;;;;5078823;28;20068;-65
2022/12/29 08:07:04;;;;;;;21.88;7.28;;;15.40;99.90;;;;;;5079813;28;20476;-64
2022/12/29 08:09:30;;;;;;;27.05;6.47;;;15.40;99.90;;;;;;5074862;28;20089;-66
2022/12/29 08:11:57;;;;;;;21.88;6.63;;;15.40;99.90;;;;;;5076909;28;20065;-65
2022/12/29 08:14:23;;;;;;;21.38;6.53;;;15.40;99.90;;;;;;5084994;28;20155;-67
2022/12/29 08:16:49;;;;;;;23.67;7.50;;;15.40;99.90;;;;;;5079383;28;20080;-66
2022/12/29 08:19:16;;;;;;;;;;;15.40;99.90;;;;;;5076312;28;20434;-66
2022/12/29 08:21:42;;;;;;;19.10;6.28;;;15.30;99.90;;;;;;5079817;28;19983;-64
2022/12/29 08:24:09;;;;;;;23.65;6.10;;;15.40;99.90;;;;;;5074692;28;20538;-65
2022/12/29 08:26:36;;;;;;;19.15;6.05;;;15.40;99.90;;;;;;5084978;28;20077;-64
2022/12/29 08:29:02;;;;;;;23.88;6.25;;;15.30;99.90;;;;;;5077784;28;20069;-64
2022/12/29 08:31:28;;;;;;;20.88;5.93;;;15.20;99.90;;;;;;5082536;28;20153;-66
2022/12/29 08:33:55;;;;;;;25.45;6.00;;;15.20;99.90;;;;;;5077374;28;20077;-64
2022/12/29 08:36:21;;;;;;;19.63;5.82;;;15.30;99.90;;;;;;5072167;28;20100;-65
2022/12/29 08:38:48;;;;;;;23.65;5.97;;;15.20;99.90;;;;;;5074252;28;20065;-65
2022/12/29 08:41:14;;;;;;;20.13;6.40;;;15.20;99.90;;;;;;5089205;28;20085;-65
2022/12/29 08:43:41;;;;;;;26.42;5.88;;;15.20;99.90;;;;;;5087594;28;20080;-66
2022/12/29 08:46:07;;;;;;;;;;;15.20;99.90;;;;;;5090404;28;20073;-65
2022/12/29 08:48:33;;;;;;;23.20;6.20;;;15.20;99.90;;;;;;5073020;28;19987;-65
2022/12/29 08:51:00;;;;;;;28.70;5.97;;;15.10;99.90;;;;;;5070302;28;20065;-65
2022/12/29 08:53:26;;;;;;;25.60;6.30;;;15.20;99.90;;;;;;5070883;28;20084;-64
2022/12/29 08:56:00;;;;;;;19.85;6.03;;;15.10;99.90;;;;;;5071984;28;20077;-66
2022/12/29 08:58:27;;;;;;;26.50;6.45;;;15.10;99.90;;;;;;5070930;28;20967;-63
2022/12/29 09:00:55;;;;;;;26.40;6.75;;;15.10;99.90;;;;;;5071869;28;20489;-64
2022/12/29 09:03:23;;;;;;;21.60;6.20;;;14.60;99.90;;;;;;5072131;28;20104;-65
2022/12/29 09:05:50;;;;;;;30.45;7.63;;;15.00;99.90;;;;;;5069905;28;20064;-64
2022/12/29 09:08:17;;;;;;;25.17;6.80;;;15.60;99.90;;;;;;5070762;28;20470;-64
2022/12/29 09:10:44;;;;;;;25.73;6.95;;;14.90;99.90;;;;;;5072871;28;20073;-66
2022/12/29 09:13:13;;;;;;;21.50;7.80;;;15.00;99.90;;;;;;5071939;28;20079;-65
2022/12/29 09:15:40;;;;;;;28.48;7.55;;;14.90;99.90;;;;;;5073807;28;20081;-64
2022/12/29 09:18:08;;;;;;;29.25;7.97;;;14.80;99.90;;;;;;5083667;28;20072;-65
2022/12/29 09:20:35;;;;;;;22.58;6.22;;;;;;;;;;5081252;28;20074;-64
2022/12/29 09:23:01;;;;;;;28.55;7.38;;;15.20;99.90;;;;;;5069855;28;20083;-65
2022/12/29 09:25:28;;;;;;;26.15;7.32;;;;;;;;;;5072292;28;20139;-66
2022/12/29 09:27:54;;;;;;;33.00;8.73;;;15.80;99.90;;;;;;5070538;28;20535;-65
2022/12/29 09:30:22;;;;;;;21.67;6.07;;;15.70;99.90;;;;;;5070571;28;20073;-66
2022/12/29 09:32:49;;;;;;;30.45;7.07;;;15.70;99.90;;;;;;5071285;28;20639;-65
2022/12/29 09:35:16;;;;;;;28.90;7.03;;;15.80;99.90;;;;;;5070507;28;20111;-64
2022/12/29 09:37:43;;;;;;;37.97;6.57;;;15.80;99.90;;;;;;5071652;28;20068;-65
2022/12/29 09:40:33;;;;;;;26.38;7.20;;;16.00;99.90;;;;;;5084963;28;20098;-66
2022/12/29 09:43:45;;;;;;;32.45;6.30;;;16.20;99.90;;;;;;5075134;28;20518;-66
2022/12/29 09:46:40;;;;;;;28.17;8.10;;;16.10;99.90;;;;;;5071357;28;20066;-66
2022/12/29 09:49:25;;;;;;;24.77;8.15;;;16.00;99.90;;;;;;5068957;28;20077;-65
2022/12/29 09:51:59;;;;;;;23.15;7.72;;;15.90;99.90;;;;;;5079695;28;20524;-63
2022/12/29 09:54:43;;;;;;;30.85;7.95;;;16.00;99.90;;;;;;5074604;28;20529;-64
2022/12/29 09:57:38;;;;;;;36.05;12.40;;;15.90;99.90;;;;;;5082896;28;20103;-65
2022/12/29 10:00:20;;;;;;;36.90;10.02;;;15.60;99.90;;;;;;5069625;28;20225;-64
2022/12/29 10:02:49;;;;;;;27.17;8.27;;;16.20;99.90;;;;;;5070472;28;20095;-63
2022/12/29 10:05:21;;;;;;;19.65;6.45;;;16.10;99.90;;;;;;5074164;28;20056;-65
2022/12/29 10:08:22;;;;;;;21.08;6.47;;;15.80;99.90;;;;;;5077923;28;20558;-65
2022/12/29 10:10:56;;;;;;;29.63;7.38;;;16.00;99.90;;;;;;5066426;28;20140;-68
2022/12/29 10:13:37;;;;;;;23.30;7.47;;;16.60;99.90;;;;;;5077387;28;20533;-64
2022/12/29 10:16:17;;;;;;;20.63;5.93;;;16.10;99.90;;;;;;5084786;28;20075;-63
2022/12/29 10:18:50;;;;;;;36.95;8.30;;;16.00;99.90;;;;;;5087807;28;20091;-63
2022/12/29 10:21:42;;;;;;;26.40;6.65;;;16.10;99.90;;;;;;5076363;28;20097;-66
2022/12/29 10:24:12;;;;;;;16.17;6.10;;;16.30;99.90;;;;;;5086894;28;20096;-64
2022/12/29 10:26:43;;;;;;;22.90;8.15;;;16.10;99.90;;;;;;5070608;28;20546;-65
2022/12/29 10:29:19;;;;;;;24.17;8.23;;;16.00;99.90;;;;;;5070819;28;20073;-69
2022/12/29 10:32:19;;;;;;;19.90;7.82;;;16.20;99.90;;;;;;5082962;28;20556;-65
2022/12/29 10:34:51;;;;;;;24.17;8.32;;;16.10;99.90;;;;;;5062948;28;20460;-66
2022/12/29 10:37:50;;;;;;;41.45;19.90;;;16.00;99.90;;;;;;5069783;28;20070;-64
2022/12/29 10:40:28;;;;;;;18.58;9.10;;;16.00;99.90;;;;;;5070192;28;20077;-64
2022/12/29 10:42:57;;;;;;;17.45;6.82;;;16.00;99.90;;;;;;5079573;28;20088;-65
2022/12/29 10:45:29;;;;;;;16.13;6.15;;;15.90;99.90;;;;;;5079723;28;20065;-63
2022/12/29 10:48:14;;;;;;;20.55;6.15;;;16.20;99.90;;;;;;5069377;28;20077;-66
2022/12/29 10:50:42;;;;;;;14.27;5.00;;;16.40;99.90;;;;;;5070116;28;20151;-64
2022/12/29 10:53:20;;;;;;;20.83;6.32;;;16.00;99.90;;;;;;5069154;28;20076;-64
2022/12/29 10:55:47;;;;;;;21.80;6.35;;;16.00;99.90;;;;;;5069767;28;20639;-65
2022/12/29 10:58:16;;;;;;;14.40;5.63;;;16.00;99.90;;;;;;5068082;28;20103;-65
2022/12/29 11:00:48;;;;;;;21.10;6.15;;;16.00;99.90;;;;;;5068388;28;20101;-65
2022/12/29 11:03:36;;;;;;;18.48;7.47;;;16.00;99.90;;;;;;5069441;28;20089;-64
2022/12/29 11:06:25;;;;;;;17.27;6.03;;;16.00;99.90;;;;;;5067409;28;20076;-68
2022/12/29 11:09:02;;;;;;;15.63;5.25;;;15.90;99.90;;;;;;5069402;28;20114;-64
2022/12/29 11:11:38;;;;;;;25.45;6.88;;;16.00;99.90;;;;;;5069780;28;20165;-65
2022/12/29 11:14:19;;;;;;;17.77;5.38;;;16.00;99.90;;;;;;5070345;28;20080;-65
2022/12/29 11:16:59;;;;;;;22.08;5.95;;;16.00;99.90;;;;;;5072724;28;20088;-65
2022/12/29 11:19:31;;;;;;;18.73;6.07;;;16.00;99.90;;;;;;5074294;28;20126;-64
2022/12/29 11:22:15;;;;;;;16.70;5.40;;;16.10;99.90;;;;;;5074217;28;20089;-66
2022/12/29 11:24:47;;;;;;;21.77;7.13;;;16.00;99.90;;;;;;5069538;28;20592;-65
2022/12/29 11:27:24;;;;;;;17.45;6.75;;;16.10;99.90;;;;;;5077206;28;20147;-66
2022/12/29 11:29:53;;;;;;;24.25;7.00;;;16.10;99.90;;;;;;5074754;28;21736;-65
2022/12/29 11:32:20;;;;;;;24.80;6.72;;;16.00;99.90;;;;;;5077538;28;20069;-64
2022/12/29 11:34:47;;;;;;;21.35;6.10;;;15.90;99.90;;;;;;5079700;28;20088;-66
2022/12/29 11:37:38;;;;;;;25.20;8.30;;;16.00;99.90;;;;;;5082688;28;20427;-65
2022/12/29 11:40:21;;;;;;;16.98;6.95;;;16.10;99.90;;;;;;5068217;28;20154;-69
2022/12/29 11:43:04;;;;;;;19.30;6.00;;;15.90;99.90;;;;;;5078009;28;20622;-66
2022/12/29 11:45:36;;;;;;;17.58;5.93;;;16.00;99.90;;;;;;5071933;28;20131;-65
2022/12/29 11:48:17;;;;;;;15.07;5.28;;;16.00;99.90;;;;;;5085983;28;20122;-67
2022/12/29 11:50:53;;;;;;;20.45;5.90;;;16.00;99.90;;;;;;5071853;28;20068;-65
2022/12/29 11:53:39;;;;;;;15.93;5.43;;;15.80;99.90;;;;;;5072168;28;20597;-64
2022/12/29 11:56:09;;;;;;;19.02;5.97;;;15.90;99.90;;;;;;5072852;28;20089;-65
2022/12/29 11:58:38;;;;;;;21.55;8.30;;;15.80;99.90;;;;;;5075331;28;20154;-63
2022/12/29 12:01:06;;;;;;;21.88;6.38;;;15.90;99.90;;;;;;5080089;28;20128;-63
2022/12/29 12:03:38;;;;;;;16.00;6.07;;;15.90;99.90;;;;;;5073696;28;20453;-65
2022/12/29 12:06:06;;;;;;;19.05;5.90;;;16.00;99.90;;;;;;5078091;28;20123;-64
2022/12/29 12:08:53;;;;;;;27.25;7.80;;;15.90;99.90;;;;;;5072899;28;20084;-65
2022/12/29 12:11:45;;;;;;;26.08;8.23;;;15.90;99.90;;;;;;5072058;28;20088;-65
2022/12/29 12:14:11;;;;;;;34.28;9.18;;;15.90;99.90;;;;;;5070842;28;20069;-63
2022/12/29 12:16:46;;;;;;;24.67;8.80;;;15.90;99.90;;;;;;5072137;28;20108;-64
2022/12/29 12:19:34;;;;;;;31.70;8.48;;;15.90;99.90;;;;;;5071233;28;20084;-65
2022/12/29 12:22:17;;;;;;;28.60;9.15;;;15.90;99.90;;;;;;5071978;28;20084;-65
2022/12/29 12:24:56;;;;;;;35.63;9.38;;;15.80;99.90;;;;;;5080004;28;20080;-64
2022/12/29 12:27:51;;;;;;;36.50;10.13;;;15.80;99.90;;;;;;5070600;28;20150;-64
2022/12/29 12:30:24;;;;;;;35.28;12.43;;;15.80;99.90;;;;;;5068519;28;20089;-66
2022/12/29 12:33:14;;;;;;;36.75;13.98;;;15.70;99.90;;;;;;5072846;28;20069;-63
2022/12/29 12:36:02;;;;;;;36.63;10.98;;;15.70;99.90;;;;;;5074143;28;20517;-62
2022/12/29 12:39:00;;;;;;;33.78;9.43;;;15.70;99.90;;;;;;5071442;28;20468;-63
2022/12/29 12:41:26;;;;;;;44.90;10.88;;;15.50;99.90;;;;;;5071393;28;20104;-62
2022/12/29 12:44:04;;;;;;;46.45;11.40;;;15.60;99.90;;;;;;5072491;28;20518;-64
2022/12/29 12:46:42;;;;;;;51.30;11.40;;;15.60;99.90;;;;;;5072434;28;20509;-66
2022/12/29 12:49:18;;;;;;;43.30;10.98;;;15.50;99.90;;;;;;5070835;28;20061;-64
2022/12/29 12:51:44;;;;;;;49.80;10.18;;;15.40;99.90;;;;;;5085496;28;20594;-64
2022/12/29 12:54:29;;;;;;;;;;;15.40;99.90;;;;;;5078211;28;20092;-66
2022/12/29 12:57:19;;;;;;;37.67;10.35;;;15.50;99.90;;;;;;5071612;28;19956;-65
2022/12/29 13:00:17;;;;;;;46.55;11.80;;;15.30;99.90;;;;;;5073604;28;20112;-67
2022/12/29 13:02:59;;;;;;;40.97;9.93;;;15.50;99.90;;;;;;5073167;28;20607;-65
2022/12/29 13:06:09;;;;;;;32.45;9.77;;;15.50;99.90;;;;;;5081143;28;20076;-64
2022/12/29 13:08:59;;;;;;;51.08;11.60;;;15.50;99.90;;;;;;4991971;28;20094;-66
2022/12/29 13:11:55;;;;;;;39.42;10.07;;;15.40;99.90;;;;;;4990958;28;20093;-64
2022/12/29 13:14:52;;;;;;;35.97;9.88;;;15.40;99.90;;;;;;4992894;28;20607;-64
2022/12/29 13:17:34;;;;;;;29.15;9.60;;;15.40;99.90;;;;;;4991172;28;20118;-64
2022/12/29 13:20:28;;;;;;;37.00;9.80;;;15.50;99.90;;;;;;5005938;28;20094;-66
2022/12/29 13:23:07;;;;;;;24.48;8.98;;;15.50;99.90;;;;;;5007713;28;20133;-65
2022/12/29 13:25:40;;;;;;;31.27;9.25;;;15.40;99.90;;;;;;4991748;28;20079;-65
2022/12/29 13:28:27;;;;;;;26.52;9.00;;;15.40;99.90;;;;;;4990957;28;20074;-64
2022/12/29 13:31:12;;;;;;;33.50;8.55;;;15.40;99.90;;;;;;4991195;28;20422;-64
2022/12/29 13:34:06;;;;;;;35.50;9.85;;;15.30;99.90;;;;;;4991161;28;20572;-64
2022/12/29 13:36:39;;;;;;;36.15;9.93;;;15.10;99.90;;;;;;4990724;28;20079;-64